Time;durP1;ratioP1;P1;durP2;ratioP2;P2;SDS_P1;SDS_P2;PMS_P1;PMS_P2;Temp;Humidity;BMP_temperature;BMP_pressure;BME280_temperature;BME280_humidity;BME280_pressure;Samples;Min_cycle;Max_cycle;Signal;HPM_P1;HPM_P2
2022/02/15 00:02:01;;;;;;;8.25;3.97;;;;;;;6.06;66.22;99398.34;8417867;34;20467;-75
2022/02/15 00:07:07;;;;;;;7.00;2.60;;;;;;;6.03;65.83;99393.25;8417824;34;20516;-74
2022/02/15 00:12:11;;;;;;;4.20;2.47;;;;;;;6.28;65.62;99398.38;8416805;34;20160;-74
2022/02/15 00:17:14;;;;;;;4.50;2.67;;;;;;;6.39;65.28;99397.53;8416964;34;20323;-75
2022/02/15 00:22:19;;;;;;;6.03;3.10;;;;;;;6.07;66.38;99403.56;8418653;34;20369;-76
2022/02/15 00:27:22;;;;;;;4.13;2.65;;;;;;;5.95;66.68;99405.38;8468772;29;20244;-74
2022/02/15 00:32:25;;;;;;;4.55;2.92;;;;;;;5.81;67.17;99407.38;8448386;34;20140;-74
2022/02/15 00:37:30;;;;;;;4.55;3.15;;;;;;;5.97;66.95;99412.38;8447424;34;20144;-74
2022/02/15 00:42:33;;;;;;;5.78;3.13;;;;;;;5.99;66.79;99399.81;8447843;34;20288;-74
2022/02/15 00:47:37;;;;;;;7.18;3.78;;;;;;;5.80;67.94;99414.53;8448285;34;20588;-74
2022/02/15 00:52:41;;;;;;;4.90;3.17;;;;;;;5.94;67.62;99421.47;8470914;34;20257;-74
2022/02/15 00:57:45;;;;;;;4.65;3.50;;;;;;;5.75;68.30;99426.50;8447690;34;20163;-74
2022/02/15 01:02:49;;;;;;;8.27;3.30;;;;;;;5.75;68.97;99430.03;8448171;34;20239;-73
2022/02/15 01:07:53;;;;;;;4.53;3.22;;;;;;;5.85;68.49;99424.84;8472431;34;20413;-74
2022/02/15 01:12:56;;;;;;;9.30;3.10;;;;;;;5.69;68.90;99423.34;8448082;34;20183;-73
2022/02/15 01:17:59;;;;;;;7.63;3.40;;;;;;;5.68;69.09;99429.66;8447112;34;20148;-74
2022/02/15 01:23:04;;;;;;;5.45;3.88;;;;;;;5.65;69.47;99429.88;8469412;34;20268;-73
2022/02/15 01:28:08;;;;;;;9.18;4.15;;;;;;;5.76;69.50;99441.53;8470147;34;20175;-73
2022/02/15 01:33:11;;;;;;;5.57;3.28;;;;;;;5.68;70.03;99439.47;8446426;34;20156;-73
2022/02/15 01:38:15;;;;;;;10.02;3.72;;;;;;;5.90;69.33;99450.19;8469670;34;20453;-74
2022/02/15 01:43:19;;;;;;;5.30;3.38;;;;;;;5.85;69.68;99446.19;8446372;34;20153;-74
2022/02/15 01:48:22;;;;;;;8.57;3.47;;;;;;;6.05;69.07;99447.31;8469474;34;20704;-74
2022/02/15 01:53:27;;;;;;;9.02;3.92;;;;;;;6.01;69.18;99453.84;8446216;34;20167;-73
2022/02/15 01:58:30;;;;;;;5.32;3.75;;;;;;;5.87;69.79;99455.75;8446457;34;20156;-74
2022/02/15 02:03:40;;;;;;;6.90;3.60;;;;;;;6.01;69.23;99457.38;8450493;34;20441;-73
2022/02/15 02:08:49;;;;;;;8.93;3.90;;;;;;;5.89;69.84;99452.97;8447510;34;20148;-74
2022/02/15 02:13:52;;;;;;;10.07;4.43;;;;;;;6.10;69.30;99445.97;8446588;34;20163;-73
2022/02/15 02:18:58;;;;;;;7.03;4.30;;;;;;;5.63;70.96;99454.94;8445519;34;20159;-73
2022/02/15 02:24:08;;;;;;;7.13;4.00;;;;;;;5.64;71.09;99459.28;8445539;34;20178;-73
2022/02/15 02:29:15;;;;;;;7.65;4.75;;;;;;;5.70;70.63;99458.81;8445744;34;20538;-73
2022/02/15 02:34:22;;;;;;;9.10;5.32;;;;;;;5.85;70.43;99460.34;8445916;34;20234;-73
2022/02/15 02:39:27;;;;;;;8.98;5.85;;;;;;;5.88;70.58;99467.25;8445409;34;20186;-73
2022/02/15 02:44:31;;;;;;;6.80;4.97;;;;;;;5.58;71.06;99467.75;8446114;34;20621;-73
2022/02/15 02:49:38;;;;;;;10.40;6.22;;;;;;;5.68;70.64;99466.94;8445507;34;20159;-73
2022/02/15 02:54:43;;;;;;;13.07;6.90;;;;;;;5.81;70.57;99460.69;8444915;34;20148;-73
2022/02/15 02:59:47;;;;;;;8.68;5.40;;;;;;;5.47;71.63;99468.56;8443841;34;20178;-73
2022/02/15 03:04:52;;;;;;;13.25;7.78;;;;;;;5.59;71.44;99472.94;8445455;34;20155;-73
2022/02/15 03:10:21;;;;;;;11.18;6.93;;;;;;;5.70;71.42;99475.69;8445323;34;20152;-73
2022/02/15 03:15:25;;;;;;;12.52;6.50;;;;;;;5.63;71.47;99485.09;8450582;34;20242;-74
2022/02/15 03:20:28;;;;;;;10.65;5.43;;;;;;;5.65;71.48;99492.97;8454803;34;20159;-74
2022/02/15 03:25:33;;;;;;;9.45;5.72;;;;;;;5.55;71.93;99503.47;8450605;34;20243;-74
2022/02/15 03:30:37;;;;;;;11.98;6.68;;;;;;;5.64;71.67;99499.25;8445120;34;20459;-76
2022/02/15 03:35:42;;;;;;;12.43;7.13;;;;;;;5.62;71.99;99502.06;8445346;34;20152;-74
2022/02/15 03:46:23;;;;;;;18.58;8.55;;;;;;;5.87;71.32;99521.50;8418308;34;20152;-73
2022/02/15 03:51:27;;;;;;;15.43;8.15;;;;;;;5.58;71.75;99529.88;8443924;34;20273;-73
2022/02/15 03:56:32;;;;;;;13.02;7.28;;;;;;;5.62;71.60;99539.34;8444001;34;20152;-73
2022/02/15 04:01:36;;;;;;;15.40;8.38;;;;;;;5.91;71.17;99555.81;8443699;34;20207;-73
2022/02/15 04:06:39;;;;;;;12.05;7.95;;;;;;;5.82;71.52;99561.84;8444244;34;20152;-73
2022/02/15 04:11:44;;;;;;;14.80;7.88;;;;;;;5.66;71.86;99562.13;8444895;34;20537;-73
2022/02/15 04:16:51;;;;;;;15.85;8.25;;;;;;;5.93;71.36;99566.38;8448589;34;20159;-73
2022/02/15 04:21:56;;;;;;;15.25;9.20;;;;;;;5.78;71.25;99572.84;8447975;34;20158;-73
2022/02/15 04:27:02;;;;;;;15.32;8.35;;;;;;;5.76;71.72;99577.44;8447998;34;20148;-74
2022/02/15 04:32:06;;;;;;;18.75;9.23;;;;;;;5.66;71.90;99588.78;8448015;34;20432;-73
2022/02/15 04:37:09;;;;;;;14.02;8.85;;;;;;;5.79;71.90;99590.53;8447599;34;20143;-73
2022/02/15 04:42:16;;;;;;;18.65;9.88;;;;;;;5.84;71.81;99596.38;8447455;34;20148;-73
2022/02/15 04:47:20;;;;;;;14.45;8.70;;;;;;;5.92;71.41;99592.19;8447606;34;20306;-72
2022/02/15 04:52:23;;;;;;;16.90;9.40;;;;;;;5.89;71.96;99618.22;8447265;34;20152;-75
2022/02/15 04:57:27;;;;;;;17.10;8.70;;;;;;;5.62;72.54;99613.09;8447520;34;20734;-73
2022/02/15 05:02:32;;;;;;;12.65;6.60;;;;;;;5.46;73.32;99629.34;8447501;34;20564;-74
2022/02/15 05:07:36;;;;;;;15.80;8.05;;;;;;;5.56;72.97;99629.53;8470571;34;20159;-73
2022/02/15 05:12:41;;;;;;;16.58;8.50;;;;;;;5.66;72.64;99628.75;8447176;34;20179;-74
2022/02/15 05:17:46;;;;;;;15.90;9.07;;;;;;;5.42;73.02;99631.34;8447625;34;20164;-73
2022/02/15 05:22:51;;;;;;;13.07;8.32;;;;;;;5.63;72.68;99650.28;8447669;34;20448;-73
2022/02/15 05:27:58;;;;;;;17.35;9.88;;;;;;;5.62;73.02;99647.72;8447927;34;20729;-75
2022/02/15 05:33:04;;;;;;;16.83;8.95;;;;;;;5.81;72.12;99655.22;8447303;34;21062;-73
2022/02/15 05:38:11;;;;;;;16.40;9.55;;;;;;;5.82;71.54;99652.47;8448212;34;20151;-74
2022/02/15 05:43:19;;;;;;;16.00;9.18;;;;;;;5.56;72.66;99657.00;8447131;34;20218;-73
2022/02/15 05:48:28;;;;;;;15.57;9.38;;;;;;;5.82;71.66;99662.28;8470188;34;20151;-73
2022/02/15 05:53:40;;;;;;;14.93;8.90;;;;;;;5.56;72.41;99667.66;8446862;34;20156;-74
2022/02/15 05:58:45;;;;;;;16.55;9.43;;;;;;;5.40;72.81;99677.72;8446207;34;21101;-73
2022/02/15 06:04:12;;;;;;;15.73;9.60;;;;;;;5.45;73.06;99683.56;8446870;34;20188;-74
2022/02/15 06:09:24;;;;;;;14.52;8.80;;;;;;;5.64;72.54;99681.28;8446499;34;20223;-74
2022/02/15 06:14:31;;;;;;;17.48;9.45;;;;;;;5.50;73.33;99690.25;8446673;34;20235;-74
2022/02/15 06:19:36;;;;;;;18.02;10.18;;;;;;;5.33;73.97;99700.44;8469084;34;20637;-73
2022/02/15 06:24:41;;;;;;;21.48;10.50;;;;;;;5.38;73.91;99704.47;8447122;34;20159;-75
2022/02/15 06:30:20;;;;;;;20.52;10.05;;;;;;;5.58;73.19;99719.03;8455523;34;20159;-76
2022/02/15 06:35:30;;;;;;;19.17;10.57;;;;;;;5.61;73.17;99718.81;8446075;34;20884;-75
2022/02/15 06:40:42;;;;;;;18.63;10.80;;;;;;;5.57;72.90;99729.78;8446223;34;20243;-75
2022/02/15 06:45:56;;;;;;;17.67;9.95;;;;;;;5.61;72.83;99733.94;8446033;34;20219;-76
2022/02/15 06:51:03;;;;;;;17.73;9.10;;;;;;;5.11;74.19;99738.34;8445682;34;20145;-75
2022/02/15 06:56:29;;;;;;;18.38;9.77;;;;;;;5.49;72.99;99749.84;8445649;34;20163;-74
2022/02/15 07:01:40;;;;;;;17.25;9.40;;;;;;;5.42;72.96;99758.38;8445360;34;20506;-76
2022/02/15 07:06:48;;;;;;;16.02;9.18;;;;;;;5.28;74.04;99761.97;8445800;34;20239;-73
2022/02/15 07:11:51;;;;;;;15.23;9.80;;;;;;;5.17;74.05;99775.19;8445632;34;20164;-76
2022/02/15 07:16:56;;;;;;;17.67;9.18;;;;;;;5.33;73.80;99785.66;8445931;34;20152;-76
2022/02/15 07:22:00;;;;;;;17.27;9.15;;;;;;;5.17;74.23;99789.34;8446613;34;20156;-76
2022/02/15 07:27:26;;;;;;;17.23;7.63;;;;;;;4.85;75.36;99788.81;8445337;34;20151;-76
2022/02/15 07:32:34;;;;;;;14.13;7.88;;;;;;;5.10;74.28;99787.19;8445087;34;20685;-76
2022/02/15 07:37:37;;;;;;;15.32;9.55;;;;;;;5.24;74.06;99789.78;8444309;34;20716;-76
2022/02/15 07:42:40;;;;;;;15.15;8.25;;;;;;;5.13;74.21;99794.97;8466792;34;20311;-75
2022/02/15 07:47:52;;;;;;;17.38;8.48;;;;;;;5.03;74.69;99800.09;8447234;34;20904;-76
2022/02/15 07:52:56;;;;;;;15.65;8.95;;;;;;;5.23;74.21;99798.72;8475701;34;20226;-76
2022/02/15 07:58:01;;;;;;;13.70;8.70;;;;;;;5.43;73.36;99803.56;8473830;34;20679;-75
2022/02/15 08:03:05;;;;;;;13.98;7.40;;;;;;;5.39;73.07;99806.53;8472780;34;20151;-76
2022/02/15 08:08:08;;;;;;;16.17;7.60;;;;;;;5.34;73.62;99821.97;8473113;34;20995;-76
2022/02/15 08:13:18;;;;;;;16.25;9.30;;;;;;;5.58;72.99;99819.44;8449184;34;20159;-76
2022/02/15 08:18:23;;;;;;;12.10;6.25;;;;;;;5.14;73.79;99833.97;8449283;34;20207;-76
2022/02/15 08:23:26;;;;;;;16.30;9.07;;;;;;;5.23;74.54;99828.00;8471503;34;20617;-76
2022/02/15 08:28:30;;;;;;;15.30;8.20;;;;;;;5.29;73.93;99830.25;8447364;34;20160;-77
2022/02/15 08:33:34;;;;;;;15.20;6.45;;;;;;;4.96;74.87;99838.66;8469862;34;20144;-75
2022/02/15 08:38:37;;;;;;;19.83;9.55;;;;;;;5.25;75.19;99842.09;8469747;34;20132;-75
2022/02/15 08:43:40;;;;;;;20.85;10.48;;;;;;;5.40;74.98;99838.41;8465993;34;20140;-75
2022/02/15 08:48:45;;;;;;;23.35;10.90;;;;;;;5.14;75.69;99839.28;8469031;34;20155;-74
2022/02/15 08:53:50;;;;;;;19.13;9.85;;;;;;;5.18;75.85;99852.28;8471366;34;20242;-76
2022/02/15 08:58:53;;;;;;;23.75;12.32;;;;;;;5.27;75.29;99849.00;8470655;34;20144;-74
2022/02/15 09:03:57;;;;;;;27.67;13.38;;;;;;;5.49;74.89;99860.88;8471670;34;20362;-77
2022/02/15 09:09:00;;;;;;;24.92;12.82;;;;;;;5.50;74.41;99858.09;8471202;34;20246;-75
2022/02/15 09:14:03;;;;;;;25.10;12.73;;;;;;;5.84;73.93;99865.56;8471717;34;20155;-75
2022/02/15 09:19:08;;;;;;;27.50;14.82;;;;;;;5.42;75.78;99867.56;8471024;34;20234;-75
2022/02/15 09:24:11;;;;;;;32.05;15.77;;;;;;;5.72;75.78;99870.81;8471057;34;20167;-74
2022/02/15 09:29:16;;;;;;;33.63;17.20;;;;;;;5.40;77.66;99880.13;8470266;34;20148;-76
2022/02/15 09:34:23;;;;;;;34.13;16.52;;;;;;;5.57;77.91;99877.19;8469175;34;20560;-76
2022/02/15 09:39:26;;;;;;;34.60;17.92;;;;;;;5.60;76.99;99894.78;8469475;34;20148;-76
2022/02/15 09:44:29;;;;;;;23.70;11.13;;;;;;;5.54;76.29;99882.75;8469899;34;20167;-77
2022/02/15 09:49:52;;;;;;;34.03;17.58;;;;;;;5.85;75.58;99893.97;8446021;34;20452;-76
2022/02/15 09:54:57;;;;;;;38.30;16.27;;;;;;;5.62;76.49;99892.84;8476979;34;20187;-76
2022/02/15 10:00:00;;;;;;;30.20;14.48;;;;;;;6.28;73.93;99883.81;8499302;34;20148;-75
2022/02/15 10:05:05;;;;;;;31.95;14.60;;;;;;;6.29;73.00;99882.84;8469645;34;20241;-76
2022/02/15 10:10:09;;;;;;;28.83;14.32;;;;;;;6.06;73.18;99883.59;8469021;34;20239;-76
2022/02/15 10:15:12;;;;;;;29.02;14.63;;;;;;;6.57;72.52;99889.69;8469529;34;20152;-75
2022/02/15 10:20:26;;;;;;;31.42;16.55;;;;;;;6.46;72.67;99894.13;8469575;34;20446;-75
2022/02/15 10:25:35;;;;;;;30.60;14.65;;;;;;;6.48;71.79;99893.03;8469608;34;20155;-75
2022/02/15 10:30:44;;;;;;;30.25;16.33;;;;;;;6.02;73.05;99890.13;8468474;34;20163;-76
2022/02/15 10:35:59;;;;;;;31.25;14.32;;;;;;;6.54;72.11;99905.09;8468637;34;20708;-75
2022/02/15 10:41:05;;;;;;;17.92;11.65;;;;;;;6.13;72.18;99900.88;8468405;34;20679;-75
2022/02/15 10:46:12;;;;;;;28.77;15.82;;;;;;;6.58;71.88;99904.78;8468672;34;20511;-76
2022/02/15 10:51:19;;;;;;;29.25;16.80;;;;;;;6.23;72.82;99907.28;8468471;34;20151;-77
2022/02/15 10:56:41;;;;;;;31.02;17.25;;;;;;;6.62;71.31;99900.06;8464723;34;20171;-77
2022/02/15 11:01:44;;;;;;;33.60;16.60;;;;;;;6.37;72.05;99907.16;8466265;34;20771;-74
2022/02/15 11:06:49;;;;;;;32.58;15.82;;;;;;;6.50;71.60;99919.59;8465805;34;20204;-76
2022/02/15 11:12:06;;;;;;;33.95;16.13;;;;;;;6.58;70.89;99920.78;8466555;34;20611;-75
2022/02/15 11:17:15;;;;;;;30.10;16.00;;;;;;;6.83;70.00;99914.53;8468248;34;20709;-76
2022/02/15 11:22:21;;;;;;;29.27;14.75;;;;;;;6.48;70.74;99914.38;8469729;34;20242;-76
2022/02/15 11:27:25;;;;;;;32.78;17.20;;;;;;;7.00;68.92;99913.31;8473060;34;20527;-78
2022/02/15 11:32:32;;;;;;;25.27;13.25;;;;;;;6.54;69.30;99913.09;8474015;34;20211;-75
2022/02/15 11:37:37;;;;;;;28.50;14.95;;;;;;;6.67;69.39;99905.91;8473425;34;20448;-76
2022/02/15 11:42:47;;;;;;;32.97;16.75;;;;;;;7.22;67.79;99895.69;8473206;34;20211;-77
2022/02/15 11:47:50;;;;;;;24.08;13.57;;;;;;;7.28;68.48;99880.03;8473764;34;20192;-75
2022/02/15 11:52:54;;;;;;;33.30;17.83;;;;;;;7.46;67.59;99896.53;8474422;34;20239;-77
2022/02/15 11:57:57;;;;;;;40.83;16.33;;;;;;;7.20;68.08;99890.44;8474290;34;20215;-77
2022/02/15 12:03:00;;;;;;;33.03;17.02;;;;;;;7.99;64.91;99881.81;8473482;34;20513;-76
2022/02/15 12:08:06;;;;;;;27.42;14.60;;;;;;;8.01;64.46;99883.41;8473274;34;20600;-77
2022/02/15 12:13:17;;;;;;;23.88;11.80;;;;;;;7.40;65.06;99866.72;8472558;34;20152;-76
2022/02/15 12:18:32;;;;;;;25.95;12.20;;;;;;;7.40;64.46;99877.41;8472672;34;20148;-76
2022/02/15 12:23:40;;;;;;;27.92;14.93;;;;;;;7.12;65.78;99884.84;8474747;29;20156;-75
2022/02/15 12:28:57;;;;;;;17.45;10.85;;;;;;;6.80;65.90;99877.38;8300669;35;20298;-76
2022/02/15 12:34:01;;;;;;;27.35;14.45;;;;;;;6.93;67.09;99872.00;8310325;35;20658;-76
2022/02/15 12:39:07;;;;;;;18.80;10.27;;;;;;;6.67;67.04;99873.03;8310151;35;20268;-76
2022/02/15 12:44:11;;;;;;;21.00;11.57;;;;;;;6.80;66.67;99877.38;8330577;35;20162;-76
2022/02/15 12:49:15;;;;;;;28.85;15.27;;;;;;;8.72;62.01;99851.88;8309983;35;20150;-75
2022/02/15 12:54:21;;;;;;;17.02;10.13;;;;;;;8.57;59.88;99863.81;8310247;35;20151;-76
2022/02/15 12:59:25;;;;;;;25.85;13.43;;;;;;;7.41;64.42;99853.25;8310159;35;20147;-75
2022/02/15 13:04:28;;;;;;;29.17;13.90;;;;;;;7.67;64.12;99839.69;8310002;35;20174;-75
2022/02/15 13:09:32;;;;;;;21.05;12.15;;;;;;;7.54;63.55;99831.78;8308351;35;20920;-75
2022/02/15 13:14:35;;;;;;;23.58;13.52;;;;;;;8.41;61.96;99842.75;8310043;35;20221;-75
2022/02/15 13:19:39;;;;;;;23.25;13.52;;;;;;;8.61;61.15;99841.16;8309172;35;20685;-76
2022/02/15 13:24:55;;;;;;;22.83;13.35;;;;;;;7.63;63.53;99835.59;8309606;35;20155;-76
2022/02/15 13:30:19;;;;;;;29.02;16.50;;;;;;;7.17;64.83;99841.75;8309220;35;20157;-76
2022/02/15 13:35:24;;;;;;;24.05;11.45;;;;;;;7.02;63.64;99817.91;8308009;35;20655;-75
2022/02/15 13:40:30;;;;;;;25.67;15.10;;;;;;;6.83;65.74;99825.56;8308973;35;20158;-76
2022/02/15 13:45:35;;;;;;;21.40;11.75;;;;;;;7.02;65.36;99835.72;8307742;35;20155;-76
2022/02/15 13:50:38;;;;;;;22.50;12.40;;;;;;;7.30;64.59;99825.66;8307873;35;20520;-76
2022/02/15 13:55:44;;;;;;;15.35;8.82;;;;;;;9.04;57.77;99819.72;8307908;35;20291;-75
2022/02/15 14:00:47;;;;;;;17.88;10.57;;;;;;;8.83;57.15;99808.13;8308466;35;20562;-76
2022/02/15 14:05:49;;;;;;;14.77;9.80;;;;;;;8.55;57.87;99821.09;8309080;35;20650;-76
2022/02/15 14:10:54;;;;;;;15.02;10.07;;;;;;;7.69;60.31;99816.38;8308382;35;20153;-76
2022/02/15 14:15:58;;;;;;;15.27;10.30;;;;;;;7.28;62.28;99818.59;8308469;35;20257;-76
2022/02/15 14:21:01;;;;;;;17.23;10.00;;;;;;;6.98;63.29;99819.09;8307962;35;20158;-76
2022/02/15 14:26:08;;;;;;;15.18;8.88;;;;;;;6.53;65.23;99836.69;8328768;35;20130;-75
2022/02/15 14:31:11;;;;;;;12.45;8.55;;;;;;;7.09;64.56;99815.63;8350717;35;20154;-75
2022/02/15 14:36:14;;;;;;;13.18;6.95;;;;;;;7.11;63.58;99795.00;8345221;35;20253;-75
2022/02/15 14:41:20;;;;;;;16.33;10.45;;;;;;;8.53;60.31;99792.75;8311845;35;20276;-75
2022/02/15 14:46:24;;;;;;;17.25;8.88;;;;;;;7.94;61.24;99804.59;8307534;35;20459;-75
2022/02/15 14:51:28;;;;;;;10.27;6.30;;;;;;;8.26;58.75;99791.34;8307132;35;20165;-76
2022/02/15 14:56:34;;;;;;;13.27;6.35;;;;;;;8.36;58.33;99776.25;8305667;35;20648;-76
2022/02/15 15:01:37;;;;;;;10.43;7.05;;;;;;;9.19;56.15;99765.84;8305600;35;20169;-75
2022/02/15 15:06:41;;;;;;;8.48;5.45;;;;;;;8.10;57.15;99766.78;8304789;35;20157;-75
2022/02/15 15:11:45;;;;;;;5.95;4.13;;;;;;;7.71;57.02;99771.69;8304483;35;20590;-75
2022/02/15 15:16:48;;;;;;;6.28;4.65;;;;;;;7.09;57.42;99786.25;8304058;35;20220;-75
2022/02/15 15:21:52;;;;;;;4.90;3.72;;;;;;;7.18;56.27;99769.50;8303661;35;20241;-74
2022/02/15 15:26:57;;;;;;;8.27;4.65;;;;;;;7.17;57.03;99764.31;8304149;35;20322;-74
2022/02/15 15:32:01;;;;;;;6.97;5.00;;;;;;;7.23;57.48;99753.97;8302470;35;20230;-74
2022/02/15 15:37:04;;;;;;;5.75;3.97;;;;;;;7.26;57.04;99758.25;8306738;35;20213;-76
2022/02/15 15:42:09;;;;;;;5.32;3.88;;;;;;;7.24;56.34;99750.38;8326300;35;20676;-75
2022/02/15 15:47:17;;;;;;;6.57;4.20;;;;;;;7.52;54.94;99729.50;8302763;35;20150;-76
2022/02/15 15:52:22;;;;;;;5.32;3.90;;;;;;;7.43;54.48;99719.50;8303916;35;20322;-76
2022/02/15 15:57:26;;;;;;;6.82;3.55;;;;;;;6.91;54.84;99710.19;8301441;35;20241;-76
2022/02/15 16:02:29;;;;;;;6.97;3.95;;;;;;;6.84;55.64;99699.13;8301987;35;20245;-75
2022/02/15 16:07:32;;;;;;;6.90;4.25;;;;;;;6.78;55.56;99713.78;8305038;35;20225;-76
2022/02/15 16:12:36;;;;;;;6.22;4.03;;;;;;;6.50;56.42;99698.13;8309701;35;20742;-76
2022/02/15 16:17:39;;;;;;;11.10;3.55;;;;;;;6.29;56.21;99701.44;8309764;35;20694;-77
2022/02/15 16:22:42;;;;;;;7.00;4.45;;;;;;;6.59;55.42;99684.13;8309068;35;20686;-75
2022/02/15 16:27:47;;;;;;;6.68;3.72;;;;;;;6.32;55.91;99679.88;8305971;35;20254;-75
2022/02/15 16:32:50;;;;;;;5.43;4.38;;;;;;;6.43;55.60;99670.22;8309788;35;20229;-76
2022/02/15 16:37:53;;;;;;;4.75;3.60;;;;;;;6.29;55.47;99687.28;8323145;34;20162;-75
2022/02/15 16:43:00;;;;;;;5.72;3.22;;;;;;;6.13;55.28;99668.88;8308143;35;20703;-75
2022/02/15 16:48:06;;;;;;;6.68;3.65;;;;;;;6.04;55.45;99669.56;8318460;35;20241;-76
2022/02/15 16:53:10;;;;;;;4.45;3.33;;;;;;;6.24;55.39;99644.09;8346881;34;20153;-76
2022/02/15 16:58:16;;;;;;;6.50;3.70;;;;;;;6.25;55.59;99648.44;8318636;35;20162;-77
2022/02/15 17:03:19;;;;;;;5.47;3.20;;;;;;;6.10;55.94;99656.63;8316715;35;20388;-74
2022/02/15 17:08:23;;;;;;;4.68;3.42;;;;;;;6.11;55.40;99657.47;8331538;35;20161;-73
2022/02/15 17:13:27;;;;;;;3.97;2.78;;;;;;;5.94;55.09;99653.38;8308586;35;20154;-76
2022/02/15 17:18:30;;;;;;;5.15;3.75;;;;;;;6.14;55.10;99646.56;8338601;34;20298;-75
2022/02/15 17:23:36;;;;;;;3.70;3.40;;;;;;;5.99;55.09;99643.25;8308246;35;20793;-74
2022/02/15 17:28:40;;;;;;;5.88;3.90;;;;;;;6.04;55.31;99637.56;8309699;35;20482;-73
2022/02/15 17:33:43;;;;;;;5.38;3.80;;;;;;;5.88;55.55;99633.34;8341333;34;20644;-73
2022/02/15 17:38:47;;;;;;;5.60;3.25;;;;;;;5.87;55.35;99622.78;8308872;35;20158;-73
2022/02/15 17:43:52;;;;;;;4.28;3.58;;;;;;;5.93;55.59;99633.88;8307790;35;20186;-75
2022/02/15 17:48:56;;;;;;;5.88;3.67;;;;;;;5.71;55.81;99631.09;8306168;35;20989;-73
2022/02/15 17:53:59;;;;;;;6.47;3.25;;;;;;;5.97;55.60;99621.16;8308400;35;20158;-74
2022/02/15 17:59:04;;;;;;;4.13;2.40;;;;;;;5.60;56.35;99612.38;8307230;35;20154;-73
2022/02/15 18:04:08;;;;;;;4.35;3.40;;;;;;;5.82;56.00;99616.97;8315526;35;20157;-75
2022/02/15 18:09:12;;;;;;;3.85;2.55;;;;;;;5.62;55.99;99605.97;8312279;35;20143;-74
2022/02/15 18:14:19;;;;;;;3.22;2.80;;;;;;;5.84;55.93;99609.69;8327996;35;20303;-74
2022/02/15 18:19:22;;;;;;;4.50;2.97;;;;;;;5.53;56.22;99598.63;8307519;35;20158;-74
2022/02/15 18:32:02;;;;;;;4.82;2.97;;;;;;;5.78;55.81;99588.84;8308219;35;20158;-74
2022/02/15 18:36:55;;;;;;;2.80;1.88;;;;;;;5.64;55.79;99595.19;8306129;35;20563;-74
2022/02/15 18:41:58;;;;;;;2.55;2.33;;;;;;;5.66;55.88;99586.13;8306787;35;20151;-73
2022/02/15 18:47:04;;;;;;;2.75;2.10;;;;;;;5.64;55.43;99576.53;8307251;35;20156;-76
2022/02/15 18:52:08;;;;;;;2.15;1.95;;;;;;;5.84;54.88;99559.94;8305508;35;20150;-73
2022/02/15 18:57:11;;;;;;;2.20;2.00;;;;;;;5.74;54.83;99553.56;8305284;35;20157;-73
2022/02/15 19:02:17;;;;;;;3.15;2.20;;;;;;;5.91;54.77;99545.16;8306600;35;20398;-73
2022/02/15 19:07:20;;;;;;;1.73;1.60;;;;;;;5.75;54.77;99544.59;8307733;35;20573;-74
2022/02/15 19:12:23;;;;;;;2.28;2.08;;;;;;;6.07;54.38;99541.34;8306852;35;20150;-72
2022/02/15 19:17:28;;;;;;;2.67;1.70;;;;;;;5.94;54.17;99531.59;8305739;35;20157;-74
2022/02/15 19:22:31;;;;;;;1.92;1.63;;;;;;;5.90;54.83;99521.31;8305822;35;20616;-74
2022/02/15 19:27:34;;;;;;;4.03;1.73;;;;;;;6.26;54.02;99514.13;8303033;35;20154;-73
2022/02/15 19:32:38;;;;;;;4.13;1.65;;;;;;;6.12;54.55;99524.03;8306048;35;20151;-73
2022/02/15 19:37:41;;;;;;;3.47;1.98;;;;;;;6.44;54.04;99495.84;8306773;35;20466;-73
2022/02/15 19:42:44;;;;;;;1.80;1.70;;;;;;;6.29;54.81;99498.75;8307819;35;20460;-73
2022/02/15 19:47:48;;;;;;;1.33;1.07;;;;;;;6.17;56.15;99503.22;8310561;35;21028;-73
2022/02/15 19:52:53;;;;;;;2.65;1.63;;;;;;;6.01;58.01;99493.84;8311407;35;20186;-74
2022/02/15 19:57:58;;;;;;;1.52;1.25;;;;;;;5.68;60.98;99498.94;8311069;35;20209;-73
2022/02/15 20:03:04;;;;;;;1.58;1.48;;;;;;;5.58;64.89;99491.72;8310119;35;20150;-73
2022/02/15 20:08:07;;;;;;;2.10;1.90;;;;;;;5.33;66.68;99484.72;8309944;35;20142;-73
2022/02/15 20:13:10;;;;;;;3.35;1.75;;;;;;;5.42;69.35;99484.88;8310284;35;20143;-73
2022/02/15 20:18:15;;;;;;;2.55;2.20;;;;;;;5.31;70.92;99476.81;8310551;35;20245;-72
2022/02/15 20:23:18;;;;;;;2.10;1.90;;;;;;;5.16;71.97;99472.63;8310526;35;20210;-72
2022/02/15 20:28:21;;;;;;;2.30;2.08;;;;;;;5.02;71.00;99466.50;8310382;35;20237;-72
2022/02/15 20:33:25;;;;;;;6.95;2.25;;;;;;;5.04;72.52;99453.06;8330995;35;20194;-74
2022/02/15 20:38:31;;;;;;;4.78;2.38;;;;;;;5.16;72.62;99460.16;8316126;35;20149;-72
2022/02/15 20:43:34;;;;;;;4.00;2.10;;;;;;;4.79;74.00;99470.75;8330753;35;20170;-73
2022/02/15 20:48:38;;;;;;;5.85;2.83;;;;;;;4.62;76.17;99456.00;8322876;35;20242;-73
2022/02/15 20:53:42;;;;;;;4.25;2.20;;;;;;;4.84;76.02;99507.69;8310792;35;20541;-73
2022/02/15 20:58:47;;;;;;;4.63;2.20;;;;;;;4.78;77.78;99458.44;8309308;35;20636;-73
2022/02/15 21:03:51;;;;;;;5.07;2.38;;;;;;;4.58;78.62;99482.94;8310108;35;20460;-73
2022/02/15 21:08:54;;;;;;;5.93;2.83;;;;;;;4.77;78.80;99458.53;8308650;35;20229;-72
2022/02/15 21:13:57;;;;;;;4.90;2.45;;;;;;;4.55;79.57;99476.03;8308437;35;20178;-74
2022/02/15 21:19:02;;;;;;;4.70;2.20;;;;;;;4.15;80.32;99446.91;8307974;35;20209;-75
2022/02/15 21:24:06;;;;;;;2.88;2.30;;;;;;;4.36;81.06;99447.22;8304338;35;20150;-75
2022/02/15 21:29:10;;;;;;;2.85;2.28;;;;;;;4.27;81.53;99445.19;8307521;35;20159;-75
2022/02/15 21:34:15;;;;;;;5.38;2.92;;;;;;;4.34;82.75;99441.16;8306845;35;20224;-73
2022/02/15 21:39:18;;;;;;;2.20;2.03;;;;;;;3.98;83.55;99441.03;8307857;35;20305;-74
2022/02/15 21:44:21;;;;;;;3.20;2.90;;;;;;;4.08;84.28;99435.00;8308490;35;20245;-73
2022/02/15 21:49:25;;;;;;;4.35;3.05;;;;;;;4.08;85.45;99416.38;8306906;35;20783;-76
2022/02/15 21:54:28;;;;;;;3.08;2.58;;;;;;;4.07;85.55;99412.03;8307487;35;20143;-74
2022/02/15 21:59:31;;;;;;;2.88;2.38;;;;;;;3.91;86.61;99398.09;8307352;35;20334;-76
2022/02/15 22:04:36;;;;;;;3.20;2.42;;;;;;;3.79;86.78;99380.38;8307754;35;20146;-74
2022/02/15 22:09:39;;;;;;;4.32;2.80;;;;;;;3.91;86.83;99387.47;8308687;35;20435;-73
2022/02/15 22:14:43;;;;;;;3.83;2.50;;;;;;;3.80;87.69;99382.06;8308316;35;20325;-73
2022/02/15 22:19:48;;;;;;;4.47;3.10;;;;;;;3.87;88.13;99384.19;8306072;35;20302;-73
2022/02/15 22:24:52;;;;;;;7.55;3.90;;;;;;;4.02;87.83;99368.97;8328215;35;20158;-73
2022/02/15 22:29:57;;;;;;;7.18;3.85;;;;;;;3.70;90.44;99368.56;8306356;35;20150;-73
2022/02/15 22:35:08;;;;;;;7.75;3.22;;;;;;;3.70;89.58;99368.56;8306728;35;20182;-73
2022/02/15 22:40:14;;;;;;;3.10;2.45;;;;;;;3.95;88.12;99365.91;8305164;35;20466;-73
2022/02/15 22:45:18;;;;;;;4.40;3.78;;;;;;;4.04;88.45;99356.44;8306401;35;20206;-74
2022/02/15 22:50:23;;;;;;;6.57;3.50;;;;;;;3.79;88.91;99352.00;8303543;35;20571;-73
2022/02/15 22:55:26;;;;;;;3.97;3.63;;;;;;;3.92;89.14;99336.91;8306048;35;20256;-74
2022/02/15 23:00:37;;;;;;;4.95;2.65;;;;;;;3.95;88.96;99330.53;8305888;35;20500;-73
2022/02/15 23:21:46;;;;;;;5.38;2.97;;;;;;;3.77;90.56;99326.50;8311373;35;20674;-75
2022/02/15 23:26:49;;;;;;;5.40;3.40;;;;;;;3.77;90.78;99335.31;8311719;35;20150;-74
2022/02/15 23:31:53;;;;;;;5.78;3.50;;;;;;;3.98;90.20;99335.63;8311584;35;20499;-73
2022/02/15 23:36:58;;;;;;;5.28;3.75;;;;;;;3.90;90.74;99336.16;8311352;35;20158;-74
2022/02/15 23:42:01;;;;;;;4.03;3.58;;;;;;;3.85;91.17;99338.28;8310756;35;20177;-73
2022/02/15 23:47:04;;;;;;;4.97;3.65;;;;;;;3.90;91.05;99309.59;8310027;35;20185;-75
2022/02/15 23:52:10;;;;;;;5.75;3.88;;;;;;;4.12;90.35;99326.69;8310647;35;20233;-73
2022/02/15 23:57:13;;;;;;;4.25;3.20;;;;;;;3.82;91.67;99330.53;8310601;35;20230;-73
